sensor_id;sensor_type;location;lat;lon;timestamp;P1;durP1;ratioP1;P2;durP2;ratioP2
15285;SDS011;7744;52.172;10.668;2023-03-14T00:02:02;1.38;;;1.27;;
15285;SDS011;7744;52.172;10.668;2023-03-14T00:04:27;1.35;;;1.25;;
15285;SDS011;7744;52.172;10.668;2023-03-14T00:06:53;1.63;;;1.25;;
15285;SDS011;7744;52.172;10.668;2023-03-14T00:09:19;2.47;;;1.30;;
15285;SDS011;7744;52.172;10.668;2023-03-14T00:11:44;2.10;;;1.58;;
15285;SDS011;7744;52.172;10.668;2023-03-14T00:14:10;1.97;;;1.30;;
15285;SDS011;7744;52.172;10.668;2023-03-14T00:16:36;2.13;;;1.20;;
15285;SDS011;7744;52.172;10.668;2023-03-14T00:19:02;1.43;;;1.30;;
15285;SDS011;7744;52.172;10.668;2023-03-14T00:21:27;2.10;;;1.40;;
15285;SDS011;7744;52.172;10.668;2023-03-14T00:23:53;1.90;;;1.30;;
15285;SDS011;7744;52.172;10.668;2023-03-14T00:26:20;3.73;;;1.50;;
15285;SDS011;7744;52.172;10.668;2023-03-14T00:28:46;1.40;;;1.23;;
15285;SDS011;7744;52.172;10.668;2023-03-14T00:31:15;2.13;;;1.33;;
15285;SDS011;7744;52.172;10.668;2023-03-14T00:33:42;2.30;;;1.50;;
15285;SDS011;7744;52.172;10.668;2023-03-14T00:36:09;1.67;;;1.30;;
15285;SDS011;7744;52.172;10.668;2023-03-14T00:38:37;4.38;;;1.40;;
15285;SDS011;7744;52.172;10.668;2023-03-14T00:41:05;2.27;;;1.50;;
15285;SDS011;7744;52.172;10.668;2023-03-14T00:43:32;1.40;;;1.17;;
15285;SDS011;7744;52.172;10.668;2023-03-14T00:45:57;1.77;;;1.30;;
15285;SDS011;7744;52.172;10.668;2023-03-14T00:48:23;1.90;;;1.00;;
15285;SDS011;7744;52.172;10.668;2023-03-14T00:50:49;1.88;;;1.08;;
15285;SDS011;7744;52.172;10.668;2023-03-14T00:53:15;2.40;;;1.30;;
15285;SDS011;7744;52.172;10.668;2023-03-14T00:55:41;2.70;;;0.97;;
15285;SDS011;7744;52.172;10.668;2023-03-14T00:58:08;3.17;;;1.30;;
15285;SDS011;7744;52.172;10.668;2023-03-14T01:00:35;3.22;;;1.48;;
15285;SDS011;7744;52.172;10.668;2023-03-14T01:03:01;2.45;;;1.00;;
15285;SDS011;7744;52.172;10.668;2023-03-14T01:05:27;3.05;;;1.77;;
15285;SDS011;7744;52.172;10.668;2023-03-14T01:07:53;1.48;;;1.35;;
15285;SDS011;7744;52.172;10.668;2023-03-14T01:10:19;2.35;;;1.15;;
15285;SDS011;7744;52.172;10.668;2023-03-14T01:12:44;2.17;;;1.33;;
15285;SDS011;7744;52.172;10.668;2023-03-14T01:15:10;4.57;;;1.67;;
15285;SDS011;7744;52.172;10.668;2023-03-14T01:17:36;1.25;;;1.00;;
15285;SDS011;7744;52.172;10.668;2023-03-14T01:20:03;1.27;;;1.10;;
15285;SDS011;7744;52.172;10.668;2023-03-14T01:22:30;2.83;;;1.30;;
15285;SDS011;7744;52.172;10.668;2023-03-14T01:24:55;2.08;;;1.08;;
15285;SDS011;7744;52.172;10.668;2023-03-14T01:27:21;2.35;;;1.00;;
15285;SDS011;7744;52.172;10.668;2023-03-14T01:29:46;2.75;;;1.10;;
15285;SDS011;7744;52.172;10.668;2023-03-14T01:32:13;2.20;;;1.17;;
15285;SDS011;7744;52.172;10.668;2023-03-14T01:34:39;2.47;;;1.17;;
15285;SDS011;7744;52.172;10.668;2023-03-14T01:37:04;2.25;;;1.20;;
15285;SDS011;7744;52.172;10.668;2023-03-14T01:39:32;2.25;;;1.05;;
15285;SDS011;7744;52.172;10.668;2023-03-14T01:41:57;2.05;;;1.00;;
15285;SDS011;7744;52.172;10.668;2023-03-14T01:44:24;1.13;;;1.00;;
15285;SDS011;7744;52.172;10.668;2023-03-14T01:46:50;1.25;;;1.13;;
15285;SDS011;7744;52.172;10.668;2023-03-14T01:49:23;1.15;;;0.90;;
15285;SDS011;7744;52.172;10.668;2023-03-14T01:52:13;2.60;;;1.23;;
15285;SDS011;7744;52.172;10.668;2023-03-14T01:54:55;1.20;;;0.70;;
15285;SDS011;7744;52.172;10.668;2023-03-14T01:57:32;1.02;;;0.80;;
15285;SDS011;7744;52.172;10.668;2023-03-14T02:00:01;1.23;;;1.00;;
15285;SDS011;7744;52.172;10.668;2023-03-14T02:02:36;1.63;;;0.75;;
15285;SDS011;7744;52.172;10.668;2023-03-14T02:05:04;1.73;;;0.70;;
15285;SDS011;7744;52.172;10.668;2023-03-14T02:07:35;1.97;;;0.90;;
15285;SDS011;7744;52.172;10.668;2023-03-14T02:10:12;1.60;;;0.90;;
15285;SDS011;7744;52.172;10.668;2023-03-14T02:12:39;1.80;;;0.90;;
15285;SDS011;7744;52.172;10.668;2023-03-14T02:15:05;1.00;;;0.82;;
15285;SDS011;7744;52.172;10.668;2023-03-14T02:17:31;1.17;;;0.80;;
15285;SDS011;7744;52.172;10.668;2023-03-14T02:22:35;1.50;;;0.90;;
15285;SDS011;7744;52.172;10.668;2023-03-14T02:27:46;2.70;;;0.83;;
15285;SDS011;7744;52.172;10.668;2023-03-14T02:30:16;1.73;;;0.80;;
15285;SDS011;7744;52.172;10.668;2023-03-14T02:32:45;3.13;;;0.83;;
15285;SDS011;7744;52.172;10.668;2023-03-14T02:35:13;2.73;;;0.83;;
15285;SDS011;7744;52.172;10.668;2023-03-14T02:37:44;1.88;;;0.82;;
15285;SDS011;7744;52.172;10.668;2023-03-14T02:40:17;1.20;;;0.83;;
15285;SDS011;7744;52.172;10.668;2023-03-14T02:42:43;2.10;;;0.90;;
15285;SDS011;7744;52.172;10.668;2023-03-14T02:47:36;3.47;;;0.93;;
15285;SDS011;7744;52.172;10.668;2023-03-14T02:50:08;3.17;;;1.20;;
15285;SDS011;7744;52.172;10.668;2023-03-14T02:52:37;1.43;;;0.80;;
15285;SDS011;7744;52.172;10.668;2023-03-14T02:55:03;0.80;;;0.67;;
15285;SDS011;7744;52.172;10.668;2023-03-14T02:57:29;2.47;;;1.23;;
15285;SDS011;7744;52.172;10.668;2023-03-14T02:59:57;1.63;;;0.90;;
15285;SDS011;7744;52.172;10.668;2023-03-14T03:02:24;3.10;;;0.87;;
15285;SDS011;7744;52.172;10.668;2023-03-14T03:04:50;2.13;;;1.00;;
15285;SDS011;7744;52.172;10.668;2023-03-14T03:07:16;2.53;;;1.20;;
15285;SDS011;7744;52.172;10.668;2023-03-14T03:09:41;1.70;;;0.70;;
15285;SDS011;7744;52.172;10.668;2023-03-14T03:12:07;1.63;;;0.80;;
15285;SDS011;7744;52.172;10.668;2023-03-14T03:14:32;1.57;;;0.90;;
15285;SDS011;7744;52.172;10.668;2023-03-14T03:16:58;2.50;;;0.77;;
15285;SDS011;7744;52.172;10.668;2023-03-14T03:19:23;2.70;;;0.83;;
15285;SDS011;7744;52.172;10.668;2023-03-14T03:21:49;3.40;;;1.00;;
15285;SDS011;7744;52.172;10.668;2023-03-14T03:24:14;3.67;;;1.30;;
15285;SDS011;7744;52.172;10.668;2023-03-14T03:26:40;1.43;;;1.00;;
15285;SDS011;7744;52.172;10.668;2023-03-14T03:29:05;1.90;;;1.10;;
15285;SDS011;7744;52.172;10.668;2023-03-14T03:31:31;5.00;;;1.10;;
15285;SDS011;7744;52.172;10.668;2023-03-14T03:33:57;2.27;;;0.90;;
15285;SDS011;7744;52.172;10.668;2023-03-14T03:36:23;2.03;;;1.00;;
15285;SDS011;7744;52.172;10.668;2023-03-14T03:38:50;1.93;;;0.90;;
15285;SDS011;7744;52.172;10.668;2023-03-14T03:41:16;4.33;;;1.20;;
15285;SDS011;7744;52.172;10.668;2023-03-14T03:43:41;2.43;;;1.00;;
15285;SDS011;7744;52.172;10.668;2023-03-14T03:46:07;2.17;;;0.83;;
15285;SDS011;7744;52.172;10.668;2023-03-14T03:48:33;2.27;;;1.00;;
15285;SDS011;7744;52.172;10.668;2023-03-14T03:50:59;2.90;;;0.93;;
15285;SDS011;7744;52.172;10.668;2023-03-14T03:53:24;2.67;;;0.80;;
15285;SDS011;7744;52.172;10.668;2023-03-14T03:55:51;4.27;;;1.30;;
15285;SDS011;7744;52.172;10.668;2023-03-14T03:58:17;3.77;;;1.17;;
15285;SDS011;7744;52.172;10.668;2023-03-14T04:00:42;4.17;;;1.40;;
15285;SDS011;7744;52.172;10.668;2023-03-14T04:03:08;1.50;;;0.70;;
15285;SDS011;7744;52.172;10.668;2023-03-14T04:05:34;3.27;;;1.00;;
15285;SDS011;7744;52.172;10.668;2023-03-14T04:08:00;2.97;;;1.20;;
15285;SDS011;7744;52.172;10.668;2023-03-14T04:10:26;3.23;;;0.87;;
15285;SDS011;7744;52.172;10.668;2023-03-14T04:12:51;2.57;;;1.07;;
15285;SDS011;7744;52.172;10.668;2023-03-14T04:15:17;3.07;;;1.00;;
15285;SDS011;7744;52.172;10.668;2023-03-14T04:17:43;2.80;;;0.90;;
15285;SDS011;7744;52.172;10.668;2023-03-14T04:20:09;2.97;;;1.10;;
15285;SDS011;7744;52.172;10.668;2023-03-14T04:22:38;2.23;;;1.03;;
15285;SDS011;7744;52.172;10.668;2023-03-14T04:25:05;2.63;;;0.90;;
15285;SDS011;7744;52.172;10.668;2023-03-14T04:27:31;3.87;;;1.40;;
15285;SDS011;7744;52.172;10.668;2023-03-14T04:29:57;2.80;;;1.00;;
15285;SDS011;7744;52.172;10.668;2023-03-14T04:32:22;3.27;;;1.30;;
15285;SDS011;7744;52.172;10.668;2023-03-14T04:34:48;2.53;;;1.00;;
15285;SDS011;7744;52.172;10.668;2023-03-14T04:37:13;3.40;;;1.10;;
15285;SDS011;7744;52.172;10.668;2023-03-14T04:39:39;2.50;;;1.10;;
15285;SDS011;7744;52.172;10.668;2023-03-14T04:42:04;2.90;;;1.10;;
15285;SDS011;7744;52.172;10.668;2023-03-14T04:44:30;3.63;;;1.43;;
15285;SDS011;7744;52.172;10.668;2023-03-14T04:46:56;3.93;;;0.87;;
15285;SDS011;7744;52.172;10.668;2023-03-14T04:49:21;2.50;;;1.10;;
15285;SDS011;7744;52.172;10.668;2023-03-14T04:51:47;2.13;;;1.00;;
15285;SDS011;7744;52.172;10.668;2023-03-14T04:54:15;1.60;;;1.10;;
15285;SDS011;7744;52.172;10.668;2023-03-14T04:56:41;5.10;;;1.30;;
15285;SDS011;7744;52.172;10.668;2023-03-14T04:59:06;4.17;;;1.13;;
15285;SDS011;7744;52.172;10.668;2023-03-14T05:01:33;2.73;;;0.80;;
15285;SDS011;7744;52.172;10.668;2023-03-14T05:03:58;3.07;;;0.90;;
15285;SDS011;7744;52.172;10.668;2023-03-14T05:06:24;1.80;;;0.90;;
15285;SDS011;7744;52.172;10.668;2023-03-14T05:08:50;2.73;;;1.00;;
15285;SDS011;7744;52.172;10.668;2023-03-14T05:11:15;2.33;;;1.07;;
15285;SDS011;7744;52.172;10.668;2023-03-14T05:13:41;4.17;;;1.17;;
15285;SDS011;7744;52.172;10.668;2023-03-14T05:16:07;2.07;;;1.03;;
15285;SDS011;7744;52.172;10.668;2023-03-14T05:18:34;1.73;;;1.00;;
15285;SDS011;7744;52.172;10.668;2023-03-14T05:21:00;2.63;;;0.93;;
15285;SDS011;7744;52.172;10.668;2023-03-14T05:23:25;2.17;;;0.90;;
15285;SDS011;7744;52.172;10.668;2023-03-14T05:25:51;1.90;;;0.83;;
15285;SDS011;7744;52.172;10.668;2023-03-14T05:28:17;1.73;;;0.80;;
15285;SDS011;7744;52.172;10.668;2023-03-14T05:30:43;1.07;;;0.80;;
15285;SDS011;7744;52.172;10.668;2023-03-14T05:33:09;1.53;;;0.80;;
15285;SDS011;7744;52.172;10.668;2023-03-14T05:35:34;3.73;;;0.70;;
15285;SDS011;7744;52.172;10.668;2023-03-14T05:38:00;1.50;;;0.63;;
15285;SDS011;7744;52.172;10.668;2023-03-14T05:40:25;2.10;;;0.50;;
15285;SDS011;7744;52.172;10.668;2023-03-14T05:42:51;0.90;;;0.50;;
15285;SDS011;7744;52.172;10.668;2023-03-14T05:45:17;0.87;;;0.50;;
15285;SDS011;7744;52.172;10.668;2023-03-14T05:47:42;1.40;;;0.67;;
15285;SDS011;7744;52.172;10.668;2023-03-14T05:50:08;1.60;;;0.60;;
15285;SDS011;7744;52.172;10.668;2023-03-14T05:52:34;1.07;;;0.50;;
15285;SDS011;7744;52.172;10.668;2023-03-14T05:55:00;0.60;;;0.50;;
15285;SDS011;7744;52.172;10.668;2023-03-14T05:57:26;1.23;;;0.43;;
15285;SDS011;7744;52.172;10.668;2023-03-14T05:59:52;1.07;;;0.50;;
15285;SDS011;7744;52.172;10.668;2023-03-14T06:02:17;0.87;;;0.40;;
15285;SDS011;7744;52.172;10.668;2023-03-14T06:04:43;0.60;;;0.50;;
15285;SDS011;7744;52.172;10.668;2023-03-14T06:07:08;1.30;;;0.40;;
15285;SDS011;7744;52.172;10.668;2023-03-14T06:09:34;1.07;;;0.70;;
15285;SDS011;7744;52.172;10.668;2023-03-14T06:11:59;1.03;;;0.40;;
15285;SDS011;7744;52.172;10.668;2023-03-14T06:14:25;0.57;;;0.40;;
15285;SDS011;7744;52.172;10.668;2023-03-14T06:16:50;2.03;;;0.83;;
15285;SDS011;7744;52.172;10.668;2023-03-14T06:19:17;1.67;;;0.50;;
15285;SDS011;7744;52.172;10.668;2023-03-14T06:21:43;1.47;;;0.60;;
15285;SDS011;7744;52.172;10.668;2023-03-14T06:24:08;0.80;;;0.40;;
15285;SDS011;7744;52.172;10.668;2023-03-14T06:26:34;1.70;;;0.40;;
15285;SDS011;7744;52.172;10.668;2023-03-14T06:28:59;1.50;;;0.70;;
15285;SDS011;7744;52.172;10.668;2023-03-14T06:31:28;1.83;;;0.47;;
15285;SDS011;7744;52.172;10.668;2023-03-14T06:33:55;0.60;;;0.40;;
15285;SDS011;7744;52.172;10.668;2023-03-14T06:36:21;2.20;;;0.60;;
15285;SDS011;7744;52.172;10.668;2023-03-14T06:38:46;1.30;;;0.60;;
15285;SDS011;7744;52.172;10.668;2023-03-14T06:41:12;1.97;;;0.60;;
15285;SDS011;7744;52.172;10.668;2023-03-14T06:43:37;0.87;;;0.70;;
15285;SDS011;7744;52.172;10.668;2023-03-14T06:46:03;1.23;;;0.83;;
15285;SDS011;7744;52.172;10.668;2023-03-14T06:48:29;2.07;;;0.50;;
15285;SDS011;7744;52.172;10.668;2023-03-14T06:50:55;1.90;;;0.43;;
15285;SDS011;7744;52.172;10.668;2023-03-14T06:53:20;1.10;;;0.43;;
15285;SDS011;7744;52.172;10.668;2023-03-14T06:55:47;0.87;;;0.50;;
15285;SDS011;7744;52.172;10.668;2023-03-14T06:58:12;1.67;;;0.57;;
15285;SDS011;7744;52.172;10.668;2023-03-14T07:00:38;0.73;;;0.43;;
15285;SDS011;7744;52.172;10.668;2023-03-14T07:03:03;1.10;;;0.60;;
15285;SDS011;7744;52.172;10.668;2023-03-14T07:05:29;2.20;;;0.50;;
15285;SDS011;7744;52.172;10.668;2023-03-14T07:07:55;1.33;;;0.50;;
15285;SDS011;7744;52.172;10.668;2023-03-14T07:10:21;1.33;;;0.70;;
15285;SDS011;7744;52.172;10.668;2023-03-14T07:12:47;1.67;;;0.57;;
15285;SDS011;7744;52.172;10.668;2023-03-14T07:15:14;1.57;;;0.70;;
15285;SDS011;7744;52.172;10.668;2023-03-14T07:17:39;2.13;;;0.70;;
15285;SDS011;7744;52.172;10.668;2023-03-14T07:20:05;1.10;;;0.60;;
15285;SDS011;7744;52.172;10.668;2023-03-14T07:22:32;0.80;;;0.50;;
15285;SDS011;7744;52.172;10.668;2023-03-14T07:24:57;1.97;;;0.80;;
15285;SDS011;7744;52.172;10.668;2023-03-14T07:27:23;2.17;;;0.97;;
15285;SDS011;7744;52.172;10.668;2023-03-14T07:32:17;2.73;;;0.90;;
15285;SDS011;7744;52.172;10.668;2023-03-14T07:34:42;2.10;;;0.80;;
15285;SDS011;7744;52.172;10.668;2023-03-14T07:37:08;2.37;;;0.80;;
15285;SDS011;7744;52.172;10.668;2023-03-14T07:39:34;2.47;;;0.87;;
15285;SDS011;7744;52.172;10.668;2023-03-14T07:42:00;3.00;;;0.80;;
15285;SDS011;7744;52.172;10.668;2023-03-14T07:44:26;3.97;;;1.07;;
15285;SDS011;7744;52.172;10.668;2023-03-14T07:46:51;2.20;;;0.80;;
15285;SDS011;7744;52.172;10.668;2023-03-14T07:49:17;2.90;;;1.00;;
15285;SDS011;7744;52.172;10.668;2023-03-14T07:51:43;2.85;;;1.52;;
15285;SDS011;7744;52.172;10.668;2023-03-14T07:54:09;2.13;;;0.80;;
15285;SDS011;7744;52.172;10.668;2023-03-14T07:56:35;3.90;;;1.77;;
15285;SDS011;7744;52.172;10.668;2023-03-14T07:59:00;3.67;;;1.10;;
15285;SDS011;7744;52.172;10.668;2023-03-14T08:01:26;2.42;;;1.08;;
15285;SDS011;7744;52.172;10.668;2023-03-14T08:03:52;3.20;;;0.95;;
15285;SDS011;7744;52.172;10.668;2023-03-14T08:06:18;3.40;;;1.40;;
15285;SDS011;7744;52.172;10.668;2023-03-14T08:08:44;2.72;;;1.38;;
15285;SDS011;7744;52.172;10.668;2023-03-14T08:11:09;1.67;;;0.80;;
15285;SDS011;7744;52.172;10.668;2023-03-14T08:13:35;2.85;;;1.00;;
15285;SDS011;7744;52.172;10.668;2023-03-14T08:16:02;2.55;;;0.88;;
15285;SDS011;7744;52.172;10.668;2023-03-14T08:18:28;2.22;;;1.10;;
15285;SDS011;7744;52.172;10.668;2023-03-14T08:20:53;2.33;;;0.98;;
15285;SDS011;7744;52.172;10.668;2023-03-14T08:23:19;2.38;;;1.20;;
15285;SDS011;7744;52.172;10.668;2023-03-14T08:25:44;4.38;;;1.10;;
15285;SDS011;7744;52.172;10.668;2023-03-14T08:28:10;2.75;;;1.20;;
15285;SDS011;7744;52.172;10.668;2023-03-14T08:30:35;3.25;;;0.90;;
15285;SDS011;7744;52.172;10.668;2023-03-14T08:33:01;4.53;;;1.42;;
15285;SDS011;7744;52.172;10.668;2023-03-14T08:35:27;1.35;;;1.05;;
15285;SDS011;7744;52.172;10.668;2023-03-14T08:37:52;1.85;;;0.80;;
15285;SDS011;7744;52.172;10.668;2023-03-14T08:40:18;3.08;;;0.90;;
15285;SDS011;7744;52.172;10.668;2023-03-14T08:42:44;2.55;;;0.70;;
15285;SDS011;7744;52.172;10.668;2023-03-14T08:45:12;2.65;;;0.90;;
15285;SDS011;7744;52.172;10.668;2023-03-14T08:47:39;1.73;;;0.82;;
15285;SDS011;7744;52.172;10.668;2023-03-14T08:50:05;0.70;;;0.60;;
15285;SDS011;7744;52.172;10.668;2023-03-14T08:52:32;1.42;;;0.70;;
15285;SDS011;7744;52.172;10.668;2023-03-14T08:54:58;1.23;;;0.70;;
15285;SDS011;7744;52.172;10.668;2023-03-14T08:57:23;0.70;;;0.68;;
15285;SDS011;7744;52.172;10.668;2023-03-14T08:59:52;1.85;;;0.82;;
15285;SDS011;7744;52.172;10.668;2023-03-14T09:02:20;2.22;;;0.60;;
15285;SDS011;7744;52.172;10.668;2023-03-14T09:04:45;2.75;;;0.77;;
15285;SDS011;7744;52.172;10.668;2023-03-14T09:07:11;1.35;;;0.50;;
15285;SDS011;7744;52.172;10.668;2023-03-14T09:09:37;1.42;;;0.75;;
15285;SDS011;7744;52.172;10.668;2023-03-14T09:12:02;4.25;;;0.60;;
15285;SDS011;7744;52.172;10.668;2023-03-14T09:14:29;0.63;;;0.50;;
15285;SDS011;7744;52.172;10.668;2023-03-14T09:16:55;2.03;;;0.60;;
15285;SDS011;7744;52.172;10.668;2023-03-14T09:19:20;1.70;;;0.57;;
15285;SDS011;7744;52.172;10.668;2023-03-14T09:21:46;0.82;;;0.60;;
15285;SDS011;7744;52.172;10.668;2023-03-14T09:24:12;0.82;;;0.52;;
15285;SDS011;7744;52.172;10.668;2023-03-14T09:26:37;1.83;;;0.80;;
15285;SDS011;7744;52.172;10.668;2023-03-14T09:29:03;2.00;;;0.55;;
15285;SDS011;7744;52.172;10.668;2023-03-14T09:31:28;2.28;;;0.50;;
15285;SDS011;7744;52.172;10.668;2023-03-14T09:33:54;2.55;;;0.90;;
15285;SDS011;7744;52.172;10.668;2023-03-14T09:36:20;1.67;;;0.70;;
15285;SDS011;7744;52.172;10.668;2023-03-14T09:38:46;1.65;;;0.70;;
15285;SDS011;7744;52.172;10.668;2023-03-14T09:41:12;1.35;;;0.70;;
15285;SDS011;7744;52.172;10.668;2023-03-14T09:43:46;0.82;;;0.43;;
15285;SDS011;7744;52.172;10.668;2023-03-14T09:46:15;0.63;;;0.50;;
15285;SDS011;7744;52.172;10.668;2023-03-14T09:48:41;1.48;;;0.60;;
15285;SDS011;7744;52.172;10.668;2023-03-14T09:51:16;1.35;;;0.52;;
15285;SDS011;7744;52.172;10.668;2023-03-14T09:53:47;0.47;;;0.40;;
15285;SDS011;7744;52.172;10.668;2023-03-14T09:56:16;0.57;;;0.40;;
15285;SDS011;7744;52.172;10.668;2023-03-14T09:58:45;1.08;;;0.60;;
15285;SDS011;7744;52.172;10.668;2023-03-14T10:01:16;1.40;;;0.60;;
15285;SDS011;7744;52.172;10.668;2023-03-14T10:03:47;2.08;;;0.80;;
15285;SDS011;7744;52.172;10.668;2023-03-14T10:06:14;0.60;;;0.50;;
15285;SDS011;7744;52.172;10.668;2023-03-14T10:08:40;0.45;;;0.40;;
15285;SDS011;7744;52.172;10.668;2023-03-14T10:11:10;1.15;;;0.50;;
15285;SDS011;7744;52.172;10.668;2023-03-14T10:16:28;2.13;;;0.55;;
15285;SDS011;7744;52.172;10.668;2023-03-14T10:19:05;0.85;;;0.40;;
15285;SDS011;7744;52.172;10.668;2023-03-14T10:21:39;1.13;;;0.60;;
15285;SDS011;7744;52.172;10.668;2023-03-14T10:24:20;0.60;;;0.40;;
15285;SDS011;7744;52.172;10.668;2023-03-14T10:26:54;1.02;;;0.40;;
15285;SDS011;7744;52.172;10.668;2023-03-14T10:29:23;0.98;;;0.57;;
15285;SDS011;7744;52.172;10.668;2023-03-14T10:34:22;1.67;;;0.50;;
15285;SDS011;7744;52.172;10.668;2023-03-14T10:36:54;1.33;;;0.45;;
15285;SDS011;7744;52.172;10.668;2023-03-14T10:41:52;0.30;;;0.30;;
15285;SDS011;7744;52.172;10.668;2023-03-14T10:44:20;1.30;;;0.30;;
15285;SDS011;7744;52.172;10.668;2023-03-14T10:46:59;1.20;;;0.25;;
15285;SDS011;7744;52.172;10.668;2023-03-14T10:49:28;0.88;;;0.35;;
15285;SDS011;7744;52.172;10.668;2023-03-14T10:51:57;0.40;;;0.40;;
15285;SDS011;7744;52.172;10.668;2023-03-14T10:54:29;0.30;;;0.30;;
15285;SDS011;7744;52.172;10.668;2023-03-14T10:56:58;0.50;;;0.30;;
15285;SDS011;7744;52.172;10.668;2023-03-14T10:59:27;0.30;;;0.20;;
15285;SDS011;7744;52.172;10.668;2023-03-14T11:02:02;0.50;;;0.20;;
15285;SDS011;7744;52.172;10.668;2023-03-14T11:05:23;0.75;;;0.30;;
15285;SDS011;7744;52.172;10.668;2023-03-14T11:07:46;0.65;;;0.30;;
15285;SDS011;7744;52.172;10.668;2023-03-14T11:15:38;0.88;;;0.30;;
15285;SDS011;7744;52.172;10.668;2023-03-14T11:24:01;0.52;;;0.43;;
15285;SDS011;7744;52.172;10.668;2023-03-14T11:31:36;0.55;;;0.50;;
15285;SDS011;7744;52.172;10.668;2023-03-14T11:34:23;0.50;;;0.50;;
15285;SDS011;7744;52.172;10.668;2023-03-14T11:37:02;0.43;;;0.30;;
15285;SDS011;7744;52.172;10.668;2023-03-14T11:39:38;1.95;;;0.40;;
15285;SDS011;7744;52.172;10.668;2023-03-14T11:42:11;0.68;;;0.45;;
15285;SDS011;7744;52.172;10.668;2023-03-14T11:44:40;0.70;;;0.38;;
15285;SDS011;7744;52.172;10.668;2023-03-14T11:49:48;1.38;;;0.68;;
15285;SDS011;7744;52.172;10.668;2023-03-14T11:52:34;1.35;;;1.15;;
15285;SDS011;7744;52.172;10.668;2023-03-14T11:57:58;2.15;;;1.95;;
15285;SDS011;7744;52.172;10.668;2023-03-14T12:00:37;2.42;;;1.90;;
15285;SDS011;7744;52.172;10.668;2023-03-14T12:03:14;0.80;;;0.60;;
15285;SDS011;7744;52.172;10.668;2023-03-14T12:05:57;1.40;;;0.80;;
15285;SDS011;7744;52.172;10.668;2023-03-14T12:08:38;1.23;;;0.47;;
15285;SDS011;7744;52.172;10.668;2023-03-14T12:11:18;1.55;;;0.40;;
15285;SDS011;7744;52.172;10.668;2023-03-14T12:14:16;0.40;;;0.40;;
15285;SDS011;7744;52.172;10.668;2023-03-14T12:16:49;0.40;;;0.40;;
15285;SDS011;7744;52.172;10.668;2023-03-14T12:24:34;0.30;;;0.30;;
15285;SDS011;7744;52.172;10.668;2023-03-14T12:27:03;0.40;;;0.30;;
15285;SDS011;7744;52.172;10.668;2023-03-14T12:29:30;0.40;;;0.30;;
15285;SDS011;7744;52.172;10.668;2023-03-14T12:34:50;0.40;;;0.30;;
15285;SDS011;7744;52.172;10.668;2023-03-14T12:39:54;1.75;;;0.77;;
15285;SDS011;7744;52.172;10.668;2023-03-14T12:45:33;0.90;;;0.80;;
15285;SDS011;7744;52.172;10.668;2023-03-14T12:48:07;2.00;;;1.60;;
15285;SDS011;7744;52.172;10.668;2023-03-14T12:50:44;1.10;;;0.67;;
15285;SDS011;7744;52.172;10.668;2023-03-14T12:55:49;2.33;;;1.73;;
15285;SDS011;7744;52.172;10.668;2023-03-14T13:00:57;2.07;;;1.60;;
15285;SDS011;7744;52.172;10.668;2023-03-14T13:03:26;1.20;;;0.90;;
15285;SDS011;7744;52.172;10.668;2023-03-14T13:06:02;2.77;;;0.60;;
15285;SDS011;7744;52.172;10.668;2023-03-14T13:08:47;1.33;;;0.90;;
15285;SDS011;7744;52.172;10.668;2023-03-14T13:11:15;0.60;;;0.50;;
15285;SDS011;7744;52.172;10.668;2023-03-14T13:13:47;0.80;;;0.70;;
15285;SDS011;7744;52.172;10.668;2023-03-14T13:16:17;2.20;;;0.87;;
15285;SDS011;7744;52.172;10.668;2023-03-14T13:18:45;0.90;;;0.60;;
15285;SDS011;7744;52.172;10.668;2023-03-14T13:21:40;2.30;;;0.80;;
15285;SDS011;7744;52.172;10.668;2023-03-14T13:24:06;1.13;;;0.93;;
15285;SDS011;7744;52.172;10.668;2023-03-14T13:26:45;1.13;;;0.80;;
15285;SDS011;7744;52.172;10.668;2023-03-14T13:29:15;0.80;;;0.70;;
15285;SDS011;7744;52.172;10.668;2023-03-14T13:31:48;0.70;;;0.70;;
15285;SDS011;7744;52.172;10.668;2023-03-14T13:34:15;1.47;;;0.70;;
15285;SDS011;7744;52.172;10.668;2023-03-14T13:36:42;0.83;;;0.50;;
15285;SDS011;7744;52.172;10.668;2023-03-14T13:39:17;1.20;;;0.30;;
15285;SDS011;7744;52.172;10.668;2023-03-14T13:41:44;0.30;;;0.30;;
15285;SDS011;7744;52.172;10.668;2023-03-14T13:44:19;0.87;;;0.70;;
15285;SDS011;7744;52.172;10.668;2023-03-14T13:47:00;2.40;;;0.87;;
15285;SDS011;7744;52.172;10.668;2023-03-14T13:49:27;0.80;;;0.80;;
15285;SDS011;7744;52.172;10.668;2023-03-14T13:51:56;1.43;;;1.33;;
15285;SDS011;7744;52.172;10.668;2023-03-14T13:54:22;1.23;;;0.70;;
15285;SDS011;7744;52.172;10.668;2023-03-14T13:56:58;0.87;;;0.87;;
15285;SDS011;7744;52.172;10.668;2023-03-14T13:59:32;1.77;;;0.90;;
15285;SDS011;7744;52.172;10.668;2023-03-14T14:02:04;1.23;;;0.60;;
15285;SDS011;7744;52.172;10.668;2023-03-14T14:04:35;1.27;;;0.83;;
15285;SDS011;7744;52.172;10.668;2023-03-14T14:07:06;3.97;;;0.83;;
15285;SDS011;7744;52.172;10.668;2023-03-14T14:09:41;3.50;;;1.40;;
15285;SDS011;7744;52.172;10.668;2023-03-14T14:12:12;4.53;;;1.10;;
15285;SDS011;7744;52.172;10.668;2023-03-14T14:17:20;4.70;;;1.30;;
15285;SDS011;7744;52.172;10.668;2023-03-14T14:19:56;3.53;;;1.03;;
15285;SDS011;7744;52.172;10.668;2023-03-14T14:22:23;3.53;;;1.20;;
15285;SDS011;7744;52.172;10.668;2023-03-14T14:24:50;5.47;;;1.70;;
15285;SDS011;7744;52.172;10.668;2023-03-14T14:27:17;5.40;;;1.67;;
15285;SDS011;7744;52.172;10.668;2023-03-14T14:29:57;5.90;;;1.20;;
15285;SDS011;7744;52.172;10.668;2023-03-14T14:32:43;4.33;;;1.87;;
15285;SDS011;7744;52.172;10.668;2023-03-14T14:35:11;7.67;;;1.80;;
15285;SDS011;7744;52.172;10.668;2023-03-14T14:37:57;4.37;;;1.60;;
15285;SDS011;7744;52.172;10.668;2023-03-14T14:40:24;8.13;;;3.07;;
15285;SDS011;7744;52.172;10.668;2023-03-14T14:42:53;5.97;;;2.57;;
15285;SDS011;7744;52.172;10.668;2023-03-14T14:45:21;5.53;;;2.10;;
15285;SDS011;7744;52.172;10.668;2023-03-14T14:47:58;4.17;;;1.60;;
15285;SDS011;7744;52.172;10.668;2023-03-14T14:53:03;3.47;;;1.50;;
15285;SDS011;7744;52.172;10.668;2023-03-14T14:55:44;5.20;;;1.67;;
15285;SDS011;7744;52.172;10.668;2023-03-14T14:58:23;4.20;;;1.43;;
15285;SDS011;7744;52.172;10.668;2023-03-14T15:00:52;5.30;;;1.43;;
15285;SDS011;7744;52.172;10.668;2023-03-14T15:03:21;5.23;;;1.47;;
15285;SDS011;7744;52.172;10.668;2023-03-14T15:05:46;4.77;;;1.17;;
15285;SDS011;7744;52.172;10.668;2023-03-14T15:08:12;5.37;;;1.80;;
15285;SDS011;7744;52.172;10.668;2023-03-14T15:10:38;4.87;;;1.33;;
15285;SDS011;7744;52.172;10.668;2023-03-14T15:13:04;5.60;;;1.80;;
15285;SDS011;7744;52.172;10.668;2023-03-14T15:15:29;6.23;;;1.93;;
15285;SDS011;7744;52.172;10.668;2023-03-14T15:17:55;6.43;;;1.80;;
15285;SDS011;7744;52.172;10.668;2023-03-14T15:20:21;7.37;;;1.60;;
15285;SDS011;7744;52.172;10.668;2023-03-14T15:22:48;11.77;;;7.50;;
15285;SDS011;7744;52.172;10.668;2023-03-14T15:25:15;7.50;;;2.20;;
15285;SDS011;7744;52.172;10.668;2023-03-14T15:27:41;7.33;;;1.67;;
15285;SDS011;7744;52.172;10.668;2023-03-14T15:30:15;8.10;;;1.73;;
15285;SDS011;7744;52.172;10.668;2023-03-14T15:32:40;8.37;;;1.97;;
15285;SDS011;7744;52.172;10.668;2023-03-14T15:35:07;12.13;;;2.90;;
15285;SDS011;7744;52.172;10.668;2023-03-14T15:37:33;7.87;;;2.50;;
15285;SDS011;7744;52.172;10.668;2023-03-14T15:39:59;10.20;;;2.77;;
15285;SDS011;7744;52.172;10.668;2023-03-14T15:42:25;11.30;;;2.33;;
15285;SDS011;7744;52.172;10.668;2023-03-14T15:44:50;9.43;;;2.23;;
15285;SDS011;7744;52.172;10.668;2023-03-14T15:47:16;10.73;;;2.50;;
15285;SDS011;7744;52.172;10.668;2023-03-14T15:49:41;11.67;;;2.50;;
15285;SDS011;7744;52.172;10.668;2023-03-14T15:52:08;8.07;;;2.07;;
15285;SDS011;7744;52.172;10.668;2023-03-14T15:54:34;8.83;;;1.80;;
15285;SDS011;7744;52.172;10.668;2023-03-14T15:57:00;11.37;;;2.30;;
15285;SDS011;7744;52.172;10.668;2023-03-14T15:59:25;10.90;;;1.90;;